createdAt,value
2019-04-19T01:56:13.238Z,97.22
2019-04-19T01:57:11.494Z,96.36
2019-04-19T01:59:03.292Z,96.55
2019-04-19T02:00:03.492Z,97.22
2019-04-19T02:02:01.612Z,97.22
2019-04-19T02:02:56.413Z,97.31
2019-04-19T02:04:47.716Z,96.84
2019-04-19T02:05:50.732Z,97.36
2019-04-19T02:07:40.477Z,97.74
2019-04-19T02:08:45.881Z,97.55
2019-04-19T02:10:43.996Z,96.41
2019-04-19T02:11:39.438Z,95.98
2019-04-19T02:13:31.696Z,96.17
2019-04-19T02:14:35.534Z,95.89
2019-04-19T02:16:21.968Z,95.32
2019-04-19T02:17:18.469Z,95.12
2019-04-19T02:19:16.256Z,94.74
2019-04-19T02:20:11.982Z,93.89
2019-04-19T02:22:11.174Z,93.41
2019-04-19T02:23:08.317Z,92.74
2019-04-19T02:24:57.723Z,92.65
2019-04-19T02:26:01.540Z,91.89
2019-04-19T02:27:50.442Z,91.79
2019-04-19T02:28:49.238Z,91.70
2019-04-19T02:30:54.763Z,91.79
2019-04-19T02:32:07.170Z,91.51
2019-04-19T02:34:08.847Z,91.22
2019-04-19T02:35:01.000Z,91.22
2019-04-19T02:37:06.458Z,90.08
2019-04-19T02:37:51.499Z,90.27
2019-04-19T02:41:02.707Z,89.61
2019-04-19T02:42:40.753Z,90.75
2019-04-19T02:43:54.437Z,89.98
2019-04-19T02:45:55.143Z,90.46
2019-04-19T02:46:42.597Z,90.27
2019-04-19T02:48:27.321Z,90.94
2019-04-19T02:49:31.979Z,90.17
2019-04-19T02:51:28.204Z,90.36
2019-04-19T02:52:25.816Z,90.84
2019-04-19T02:54:09.913Z,90.84
2019-04-19T02:55:09.297Z,90.99
2019-04-19T02:57:12.482Z,90.99
2019-04-19T02:58:09.872Z,91.65
2019-04-19T03:00:58.582Z,90.84
2019-04-19T03:03:06.196Z,89.98
2019-04-19T03:03:37.975Z,90.17
2019-04-19T03:05:36.891Z,89.51
2019-04-19T03:06:25.302Z,89.98
2019-04-19T03:08:08.236Z,89.98
2019-04-19T03:09:07.218Z,89.98
2019-04-19T03:11:09.185Z,90.32
2019-04-19T03:12:24.552Z,90.27
2019-04-19T03:14:05.574Z,89.41
2019-04-19T03:15:05.326Z,89.61
2019-04-19T03:17:05.460Z,89.22
2019-04-19T03:18:03.589Z,89.65
2019-04-19T03:19:54.183Z,90.22
2019-04-19T03:20:51.775Z,89.98
2019-04-19T03:22:49.486Z,90.42
2019-04-19T03:23:45.087Z,90.65
2019-04-19T03:25:36.774Z,89.94
2019-04-19T03:26:38.577Z,90.84
2019-04-19T03:28:25.727Z,91.37
2019-04-19T03:29:23.516Z,91.94
2019-04-19T03:32:45.705Z,90.99
2019-04-19T03:34:31.228Z,90.61
2019-04-19T03:35:14.331Z,90.61
2019-04-19T03:37:14.915Z,90.42
2019-04-19T03:38:10.467Z,90.70
2019-04-19T03:40:15.037Z,90.99
2019-04-19T03:41:03.357Z,90.99
2019-04-19T03:42:55.287Z,91.37
2019-04-19T03:43:56.718Z,91.56
2019-04-19T03:45:56.431Z,92.70
2019-04-19T03:48:47.595Z,93.18
2019-04-19T03:49:57.226Z,93.74
2019-04-19T03:51:41.363Z,94.03
2019-04-19T03:52:40.432Z,94.03
2019-04-19T03:54:30.151Z,94.51
2019-04-19T03:55:25.977Z,94.51
2019-04-19T03:57:16.944Z,94.56
2019-04-19T03:58:11.222Z,93.98
2019-04-19T03:59:56.312Z,93.89
2019-04-19T04:00:55.994Z,94.08
2019-04-19T04:02:50.003Z,95.03
2019-04-19T04:03:51.058Z,95.22
2019-04-19T04:05:45.691Z,94.93
2019-04-19T04:06:44.235Z,94.65
2019-04-19T04:08:38.188Z,94.32
2019-04-19T04:09:40.648Z,94.51
2019-04-19T04:11:29.570Z,94.60
2019-04-19T04:12:38.003Z,94.51
2019-04-19T04:14:29.525Z,93.65
2019-04-19T04:15:36.552Z,93.74
2019-04-19T04:17:12.325Z,93.84
2019-04-19T04:18:13.245Z,92.89
2019-04-19T04:20:05.347Z,92.89
2019-04-19T04:21:05.471Z,92.70
2019-04-19T04:23:03.618Z,92.70
2019-04-19T04:24:04.770Z,92.51
2019-04-19T04:25:59.273Z,91.56
2019-04-19T04:27:01.639Z,92.03
2019-04-19T04:28:56.624Z,91.56
2019-04-19T04:29:57.079Z,92.32
2019-04-19T04:31:48.331Z,91.46
2019-04-19T04:32:46.918Z,90.70
2019-04-19T04:34:41.231Z,91.75
2019-04-19T04:35:47.003Z,91.56
2019-04-19T04:37:38.358Z,90.42
2019-04-19T04:38:29.150Z,90.51
2019-04-19T04:40:14.604Z,90.32
2019-04-19T04:41:20.096Z,90.03
2019-04-19T04:43:20.289Z,90.32
2019-04-19T04:44:23.313Z,90.03
2019-04-19T04:46:24.755Z,90.03
2019-04-19T04:47:19.306Z,89.94
2019-04-19T04:49:20.904Z,90.03
2019-04-19T04:50:12.936Z,89.94
2019-04-19T04:51:58.665Z,89.56
2019-04-19T04:52:47.630Z,89.65
2019-04-19T04:54:39.357Z,89.03
2019-04-19T04:55:44.902Z,89.18
2019-04-19T04:57:38.354Z,89.56
2019-04-19T04:58:34.434Z,89.65
2019-04-19T05:00:28.355Z,89.75
2019-04-19T05:01:34.922Z,89.41
2019-04-19T05:03:36.824Z,89.13
2019-04-19T05:04:29.820Z,89.22
2019-04-19T05:06:28.106Z,89.22
2019-04-19T05:07:28.408Z,89.03
2019-04-19T05:09:22.984Z,88.18
2019-04-19T05:10:18.798Z,88.46
2019-04-19T05:12:36.585Z,88.46
2019-04-19T05:15:00.470Z,87.60
2019-04-19T05:16:11.370Z,88.18
2019-04-19T05:18:05.051Z,86.75
2019-04-19T05:18:53.908Z,86.75
2019-04-19T05:20:48.490Z,86.75
2019-04-19T05:21:50.431Z,86.79
2019-04-19T05:23:47.723Z,85.70
2019-04-19T05:24:51.766Z,86.51
2019-04-19T05:27:38.961Z,86.32
2019-04-19T05:29:19.974Z,85.46
2019-04-19T05:30:11.295Z,85.46
2019-04-19T05:32:10.131Z,84.41
2019-04-19T05:33:14.333Z,83.74
2019-04-19T05:35:11.872Z,84.50
2019-04-19T05:36:13.790Z,84.74
2019-04-19T05:38:03.358Z,83.88
2019-04-19T05:39:08.045Z,82.83
2019-04-19T05:40:54.926Z,83.12
2019-04-19T05:41:56.495Z,81.97
2019-04-19T05:45:05.936Z,82.30
2019-04-19T05:46:50.225Z,80.87
2019-04-19T05:47:41.996Z,80.49
2019-04-19T05:49:37.777Z,80.11
2019-04-19T05:50:45.742Z,79.57
2019-04-19T05:52:28.893Z,77.57
2019-04-19T05:53:23.558Z,77.13
2019-04-19T05:55:05.067Z,74.63
2019-04-19T05:56:04.986Z,73.39
2019-04-19T05:58:12.908Z,73.19
2019-04-19T05:59:07.136Z,73.48
2019-04-19T06:01:02.774Z,72.94
2019-04-19T06:02:09.386Z,71.86
2019-04-19T06:03:58.626Z,72.08
2019-04-19T06:05:06.804Z,71.80
2019-04-19T06:06:56.472Z,72.37
2019-04-19T06:07:49.269Z,72.14
2019-04-19T06:09:28.802Z,71.80
2019-04-19T06:10:33.042Z,71.22
2019-04-19T06:12:26.804Z,69.60
2019-04-19T06:13:21.984Z,67.28
2019-04-19T06:15:41.965Z,63.70
2019-04-19T06:16:30.790Z,62.81
2019-04-19T06:18:24.517Z,63.03
2019-04-19T06:19:28.440Z,61.94
2019-04-19T06:21:17.301Z,59.28
2019-04-19T06:22:10.291Z,58.80
2019-04-19T06:24:17.643Z,57.60
2019-04-19T06:25:12.291Z,56.43
2019-04-19T06:27:13.301Z,56.70
2019-04-19T06:28:12.682Z,54.85
2019-04-19T06:30:06.475Z,54.42
2019-04-19T06:30:54.773Z,53.27
2019-04-19T06:32:50.478Z,52.61
2019-04-19T06:33:48.430Z,51.94
2019-04-19T06:35:33.041Z,52.95
2019-04-19T06:36:23.350Z,53.50
2019-04-19T06:38:16.340Z,54.00
2019-04-19T06:39:16.361Z,53.27
2019-04-19T06:41:13.593Z,52.44
2019-04-19T06:42:11.734Z,52.97
2019-04-19T06:44:13.754Z,54.17
2019-04-19T06:45:19.768Z,53.72
2019-04-19T06:47:06.167Z,52.16
2019-04-19T06:48:01.964Z,51.22
2019-04-19T06:49:48.788Z,51.20
2019-04-19T06:50:52.537Z,51.26
2019-04-19T06:52:41.157Z,52.47
2019-04-19T06:53:47.364Z,52.59
2019-04-19T06:55:36.636Z,51.70
2019-04-19T06:56:37.240Z,50.47
2019-04-19T06:58:33.095Z,48.86
2019-04-19T06:59:46.223Z,51.00
2019-04-19T07:01:30.151Z,50.32
2019-04-19T07:02:18.125Z,51.00
2019-04-19T07:04:10.785Z,50.31
2019-04-19T07:05:22.995Z,49.07
2019-04-19T07:07:22.089Z,47.19
2019-04-19T07:08:45.857Z,46.12
2019-04-19T07:10:24.954Z,49.12
2019-04-19T07:11:16.554Z,51.50
2019-04-19T07:13:04.896Z,52.13
2019-04-19T07:13:59.737Z,51.20
2019-04-19T07:16:09.054Z,50.43
2019-04-19T07:17:03.510Z,48.25
2019-04-19T07:18:48.739Z,46.70
2019-04-19T07:19:52.755Z,46.53
2019-04-19T07:21:43.709Z,45.61
2019-04-19T07:22:44.966Z,45.25
2019-04-19T07:25:03.566Z,44.96
2019-04-19T07:25:42.446Z,45.15
2019-04-19T07:27:27.084Z,44.76
2019-04-19T07:28:20.414Z,44.33
2019-04-19T07:30:06.890Z,45.28
2019-04-19T07:31:08.388Z,46.17
2019-04-19T07:33:05.290Z,46.63
2019-04-19T07:34:11.175Z,45.57
2019-04-19T07:36:12.041Z,45.25
2019-04-19T07:37:10.510Z,46.34
2019-04-19T07:39:03.318Z,45.61
2019-04-19T07:40:09.729Z,45.81
2019-04-19T07:41:52.278Z,45.07
2019-04-19T07:42:50.711Z,45.39
2019-04-19T07:44:38.917Z,44.73
2019-04-19T07:45:45.951Z,44.13
2019-04-19T07:47:30.460Z,43.08
2019-04-19T07:48:23.078Z,44.17
2019-04-19T07:50:19.783Z,43.01
2019-04-19T07:51:22.822Z,42.81
2019-04-19T07:53:08.306Z,42.40
2019-04-19T07:54:13.569Z,43.31
2019-04-19T07:56:12.350Z,44.87
2019-04-19T07:57:22.377Z,45.57
2019-04-19T07:59:18.065Z,46.77
2019-04-19T08:00:18.535Z,45.83
2019-04-19T08:05:09.861Z,45.35
2019-04-19T08:05:59.336Z,46.15
2019-04-19T08:08:30.176Z,45.40
2019-04-19T08:08:56.972Z,45.34
2019-04-19T08:11:58.591Z,44.61
2019-04-19T08:17:12.079Z,44.02
2019-04-19T08:17:42.058Z,44.96
2019-04-19T08:27:43.380Z,44.01
2019-04-19T08:28:49.882Z,43.64
2019-04-19T08:30:41.979Z,43.87
2019-04-19T08:31:32.307Z,44.64
2019-04-19T08:33:25.533Z,45.34
2019-04-19T08:34:28.847Z,45.00
2019-04-19T08:36:25.502Z,44.38
2019-04-19T08:37:26.565Z,44.21
2019-04-19T08:39:27.642Z,40.87
2019-04-19T08:40:30.387Z,42.60
2019-04-19T08:42:20.853Z,43.22
2019-04-19T08:43:30.354Z,43.24
2019-04-19T08:45:01.729Z,41.14
2019-04-19T08:45:56.064Z,41.13
2019-04-19T08:48:00.226Z,41.01
2019-04-19T08:48:54.449Z,41.08
2019-04-19T08:50:47.381Z,40.79
2019-04-19T08:51:42.295Z,40.13
2019-04-19T08:53:45.988Z,40.03
2019-04-19T08:54:56.269Z,41.24
2019-04-19T08:56:38.938Z,39.78
2019-04-19T08:57:29.147Z,39.76
2019-04-19T08:59:49.143Z,40.11
2019-04-19T09:00:44.989Z,39.57
2019-04-19T09:02:29.098Z,41.32
2019-04-19T09:03:39.053Z,40.25
2019-04-19T09:05:25.978Z,42.18
2019-04-19T09:07:17.049Z,40.93
2019-04-19T09:08:18.312Z,38.85
2019-04-19T09:09:19.738Z,37.52
2019-04-19T09:11:13.867Z,39.43
2019-04-19T09:12:16.362Z,39.32
2019-04-19T09:14:09.663Z,42.13
2019-04-19T09:15:03.884Z,40.99
2019-04-19T09:17:05.767Z,39.51
2019-04-19T09:18:19.286Z,38.17
2019-04-19T09:20:51.473Z,36.76
2019-04-19T09:22:35.823Z,35.60
2019-04-19T09:23:35.133Z,36.93
2019-04-19T09:25:24.533Z,38.96
2019-04-19T09:26:31.767Z,39.39
2019-04-19T09:28:36.527Z,37.27
2019-04-19T09:29:33.817Z,36.20
2019-04-19T09:31:18.215Z,37.16
2019-04-19T09:32:08.422Z,36.49
2019-04-19T09:34:01.667Z,35.89
2019-04-19T09:35:00.593Z,36.44
2019-04-19T09:36:58.180Z,37.01
2019-04-19T09:37:59.054Z,36.30
2019-04-19T09:39:50.117Z,37.30
2019-04-19T09:40:46.783Z,37.06
2019-04-19T09:42:43.274Z,35.63
2019-04-19T09:43:45.083Z,35.47
2019-04-19T09:45:25.405Z,33.87
2019-04-19T09:46:25.366Z,33.93
2019-04-19T09:48:37.910Z,32.86
2019-04-19T09:49:32.213Z,33.80
2019-04-19T09:51:30.147Z,35.68
2019-04-19T09:52:33.232Z,34.58
2019-04-19T09:54:26.646Z,35.19
2019-04-19T09:55:30.257Z,35.21
2019-04-19T09:57:15.748Z,35.21
2019-04-19T09:58:11.824Z,35.15
2019-04-19T09:59:57.101Z,33.67
2019-04-19T10:00:51.947Z,35.10
2019-04-19T10:02:48.289Z,36.02
2019-04-19T10:03:46.834Z,36.87
2019-04-19T10:05:33.407Z,38.06
2019-04-19T10:06:33.335Z,38.56
2019-04-19T10:08:28.020Z,37.01
2019-04-19T10:09:27.315Z,34.87
2019-04-19T10:11:19.116Z,35.80
2019-04-19T10:12:19.622Z,35.93
2019-04-19T10:14:13.242Z,33.80
2019-04-19T10:15:11.846Z,34.21
2019-04-19T10:17:05.478Z,32.79
2019-04-19T10:18:04.909Z,32.31
2019-04-19T10:19:57.151Z,32.32
2019-04-19T10:20:57.081Z,31.76
2019-04-19T10:22:50.878Z,31.48
2019-04-19T10:23:49.908Z,31.07
2019-04-19T10:25:47.837Z,31.20
2019-04-19T10:26:42.666Z,32.11
2019-04-19T10:28:35.413Z,31.46
2019-04-19T10:29:40.134Z,32.55
2019-04-19T10:31:29.388Z,32.55
2019-04-19T10:32:28.718Z,31.77
2019-04-19T10:34:20.921Z,32.65
2019-04-19T10:35:20.859Z,32.57
2019-04-19T10:37:13.659Z,31.10
2019-04-19T10:38:13.617Z,30.58
2019-04-19T10:40:07.764Z,30.94
2019-04-19T10:41:07.130Z,31.79
2019-04-19T10:42:59.141Z,33.67
2019-04-19T10:44:08.255Z,34.46
2019-04-19T10:45:52.145Z,35.16
2019-04-19T10:46:51.843Z,35.03
2019-04-19T10:48:56.332Z,35.82
2019-04-19T10:49:51.767Z,35.11
2019-04-19T10:51:37.622Z,36.25
2019-04-19T10:52:37.430Z,36.35
2019-04-19T10:54:30.730Z,36.80
2019-04-19T10:55:30.078Z,37.55
2019-04-19T10:57:23.250Z,38.71
2019-04-19T10:58:23.239Z,38.93
2019-04-19T11:00:15.783Z,37.54
2019-04-19T11:01:15.640Z,37.63
2019-04-19T11:03:08.764Z,38.08
2019-04-19T11:04:08.837Z,39.04
2019-04-19T11:06:02.880Z,39.45
2019-04-19T11:07:01.825Z,38.78
2019-04-19T11:08:54.680Z,38.68
2019-04-19T11:09:55.618Z,39.37
2019-04-19T11:11:47.657Z,38.02
2019-04-19T11:12:47.532Z,38.48
2019-04-19T11:14:40.104Z,38.31
2019-04-19T11:15:40.450Z,38.31
2019-04-19T11:17:33.809Z,38.41
2019-04-19T11:18:32.798Z,37.90
2019-04-19T11:20:34.622Z,38.20
2019-04-19T11:21:25.532Z,37.90
2019-04-19T11:23:19.519Z,37.81
2019-04-19T11:24:18.265Z,37.52
2019-04-19T11:26:11.056Z,37.71
2019-04-19T11:27:11.160Z,37.71
2019-04-19T11:29:03.928Z,38.20
2019-04-19T11:30:03.724Z,38.58
2019-04-19T11:31:57.562Z,37.70
2019-04-19T11:32:56.895Z,37.70
2019-04-19T11:34:49.683Z,37.77
2019-04-19T11:35:49.563Z,38.16
2019-04-19T11:37:42.663Z,38.45
2019-04-19T11:38:43.040Z,38.18
2019-04-19T11:40:35.364Z,37.88
2019-04-19T11:41:34.654Z,37.40
2019-04-19T11:43:27.649Z,35.64
2019-04-19T11:44:29.308Z,36.30
2019-04-19T11:46:20.260Z,37.77
2019-04-19T11:47:20.093Z,37.58
2019-04-19T11:49:22.902Z,38.06
2019-04-19T11:50:13.795Z,38.16
2019-04-19T11:52:08.091Z,38.85
2019-04-19T11:53:06.141Z,39.34
2019-04-19T11:54:58.331Z,39.62
2019-04-19T11:55:58.348Z,38.08
2019-04-19T11:57:52.427Z,37.96
2019-04-19T11:58:50.994Z,38.25
2019-04-19T12:00:43.805Z,38.74
2019-04-19T12:01:43.990Z,38.06
2019-04-19T12:03:39.893Z,38.74
2019-04-19T12:04:36.464Z,38.33
2019-04-19T12:06:30.042Z,39.99
2019-04-19T12:07:30.459Z,40.45
2019-04-19T12:09:22.658Z,39.78
2019-04-19T12:10:21.940Z,39.69
2019-04-19T12:12:15.018Z,39.87
2019-04-19T12:13:15.176Z,40.17
2019-04-19T12:15:08.377Z,39.51
2019-04-19T12:16:08.603Z,39.22
2019-04-19T12:18:00.249Z,38.76
2019-04-19T12:19:00.325Z,38.06
2019-04-19T12:20:53.294Z,39.22
2019-04-19T12:21:54.524Z,39.41
2019-04-19T12:23:46.654Z,38.54
2019-04-19T12:24:46.958Z,38.71
2019-04-19T12:26:39.686Z,39.59
2019-04-19T12:27:39.467Z,39.69
2019-04-19T12:29:38.709Z,38.71
2019-04-19T12:30:31.510Z,39.01
2019-04-19T12:32:25.422Z,39.12
2019-04-19T12:33:24.117Z,38.83
2019-04-19T12:35:18.396Z,39.70
2019-04-19T12:36:17.266Z,39.90
2019-04-19T12:38:10.273Z,39.61
2019-04-19T12:39:09.661Z,39.41
2019-04-19T12:41:03.774Z,39.22
2019-04-19T12:42:02.388Z,39.20
2019-04-19T12:43:56.083Z,39.11
2019-04-19T12:44:55.206Z,38.33
2019-04-19T12:46:48.732Z,39.39
2019-04-19T12:47:48.989Z,38.53
2019-04-19T12:49:50.952Z,39.11
2019-04-19T12:50:41.979Z,38.14
2019-04-19T12:52:33.693Z,38.89
2019-04-19T12:53:34.646Z,39.18
2019-04-19T12:55:26.428Z,39.59
2019-04-19T12:56:27.339Z,39.20
2019-04-19T12:58:19.711Z,38.62
2019-04-19T12:59:21.496Z,38.14
2019-04-19T13:01:12.327Z,37.75
2019-04-19T13:02:12.001Z,38.71
2019-04-19T13:04:04.851Z,38.81
2019-04-19T13:05:04.737Z,39.29
2019-04-19T13:06:58.626Z,39.29
2019-04-19T13:07:57.462Z,38.14
2019-04-19T13:09:50.923Z,38.14
2019-04-19T13:10:51.173Z,39.59
2019-04-19T13:12:44.019Z,38.02
2019-04-19T13:13:43.711Z,39.18
2019-04-19T13:15:36.387Z,39.11
2019-04-19T13:16:36.593Z,39.59
2019-04-19T13:18:30.028Z,39.01
2019-04-19T13:19:29.160Z,38.81
2019-04-19T13:21:21.968Z,38.62
2019-04-19T13:22:22.766Z,39.20
2019-04-19T13:24:16.196Z,39.97
2019-04-19T13:25:16.463Z,41.23
2019-04-19T13:27:07.546Z,38.62
2019-04-19T13:28:07.918Z,38.91
2019-04-19T13:30:12.124Z,38.62
2019-04-19T13:31:01.380Z,38.71
2019-04-19T13:32:54.364Z,38.23
2019-04-19T13:33:53.325Z,37.95
2019-04-19T13:35:46.197Z,37.73
2019-04-19T13:36:47.461Z,37.83
2019-04-19T13:38:39.197Z,37.63
2019-04-19T13:39:38.348Z,38.70
2019-04-19T13:41:30.543Z,39.18
2019-04-19T13:42:30.825Z,39.20
2019-04-19T13:44:23.300Z,39.59
2019-04-19T13:45:29.314Z,39.29
2019-04-19T13:47:16.544Z,39.41
2019-04-19T13:48:16.727Z,39.32
2019-04-19T13:50:19.317Z,38.70
2019-04-19T13:51:09.195Z,39.28
2019-04-19T13:53:02.526Z,39.37
2019-04-19T13:54:02.783Z,39.09
2019-04-19T13:55:54.904Z,39.95
2019-04-19T13:56:55.520Z,39.18
2019-04-19T13:58:47.672Z,39.28
2019-04-19T13:59:55.682Z,39.18
2019-04-19T14:01:40.645Z,39.28
2019-04-19T14:02:41.152Z,39.37
2019-04-19T14:04:33.544Z,38.43
2019-04-19T14:05:34.093Z,39.11
2019-04-19T14:07:25.777Z,39.22
2019-04-19T14:08:28.230Z,39.70
2019-04-19T14:10:19.113Z,40.47
2019-04-19T14:11:19.374Z,40.67
2019-04-19T14:13:11.301Z,39.99
2019-04-19T14:14:12.052Z,39.99
2019-04-19T14:16:05.106Z,40.09
2019-04-19T14:17:06.039Z,40.19
2019-04-19T14:18:58.453Z,39.39
2019-04-19T14:19:58.630Z,39.11
2019-04-19T14:21:50.969Z,40.15
2019-04-19T14:22:51.797Z,40.63
2019-04-19T14:24:43.443Z,40.63
2019-04-19T14:25:43.370Z,41.03
2019-04-19T14:27:37.482Z,41.13
2019-04-19T14:28:36.164Z,40.75
2019-04-19T14:30:29.239Z,40.84
2019-04-19T14:31:30.266Z,40.84
2019-04-19T14:33:23.094Z,41.63
2019-04-19T14:34:21.820Z,41.54
2019-04-19T14:36:15.919Z,40.67
2019-04-19T14:37:16.138Z,41.05
2019-04-19T14:39:08.739Z,41.03
2019-04-19T14:40:07.484Z,41.33
2019-04-19T14:42:38.364Z,41.78
2019-04-19T14:43:38.522Z,42.39
2019-04-19T14:45:30.515Z,42.39
2019-04-19T14:46:30.425Z,41.71
2019-04-19T14:48:29.329Z,41.88
2019-04-19T14:49:23.099Z,41.88
2019-04-19T14:51:24.039Z,42.94
2019-04-19T14:52:16.211Z,42.46
2019-04-19T14:54:08.997Z,42.36
2019-04-19T14:55:09.979Z,42.27
2019-04-19T14:57:01.447Z,41.98
2019-04-19T14:58:01.282Z,42.36
2019-04-19T14:59:54.662Z,43.64
2019-04-19T15:00:54.833Z,43.26
2019-04-19T15:02:48.947Z,42.19
2019-04-19T15:03:46.787Z,41.69
2019-04-19T15:05:39.742Z,42.87
2019-04-19T15:06:39.768Z,42.29
2019-04-19T15:08:34.416Z,42.58
2019-04-19T15:09:33.312Z,42.00
2019-04-19T15:11:27.624Z,41.61
2019-04-19T15:12:26.894Z,41.91
2019-04-19T15:14:20.707Z,42.00
2019-04-19T15:15:19.646Z,42.10
2019-04-19T15:17:13.575Z,42.77
2019-04-19T15:18:13.124Z,42.39
2019-04-19T15:20:05.801Z,42.39
2019-04-19T15:21:13.054Z,42.36
2019-04-19T15:22:58.385Z,41.88
2019-04-19T15:23:58.665Z,41.88
2019-04-19T15:25:51.179Z,42.46
2019-04-19T15:26:51.047Z,42.75
2019-04-19T15:28:44.753Z,43.24
2019-04-19T15:29:45.047Z,43.04
2019-04-19T15:31:36.830Z,42.10
2019-04-19T15:32:38.221Z,42.00
2019-04-19T15:34:29.668Z,42.48
2019-04-19T15:35:29.758Z,42.48
2019-04-19T15:37:23.183Z,42.00
2019-04-19T15:38:22.197Z,42.08
2019-04-19T15:40:16.077Z,42.75
2019-04-19T15:41:16.317Z,42.75
2019-04-19T15:43:08.803Z,42.75
2019-04-19T15:44:08.549Z,42.46
2019-04-19T15:46:01.305Z,42.85
2019-04-19T15:47:04.176Z,42.36
2019-04-19T15:48:56.765Z,42.85
2019-04-19T15:49:53.779Z,42.85
2019-04-19T15:51:47.866Z,42.75
2019-04-19T15:52:48.055Z,43.02
2019-04-19T15:54:39.479Z,43.12
2019-04-19T15:55:39.930Z,43.31
2019-04-19T15:57:32.582Z,43.89
2019-04-19T15:58:32.967Z,43.31
2019-04-19T16:00:25.828Z,43.60
2019-04-19T16:01:27.813Z,43.91
2019-04-19T16:03:18.186Z,43.02
2019-04-19T16:04:17.773Z,43.70
2019-04-19T16:06:11.891Z,43.89
2019-04-19T16:07:10.610Z,43.52
2019-04-19T16:09:03.266Z,43.21
2019-04-19T16:10:08.500Z,43.89
2019-04-19T16:11:56.466Z,44.08
2019-04-19T16:12:55.870Z,43.70
2019-04-19T16:14:48.052Z,43.79
2019-04-19T16:15:48.275Z,43.98
2019-04-19T16:17:41.858Z,43.98
2019-04-19T16:18:40.719Z,43.60
2019-04-19T16:20:33.729Z,42.73
2019-04-19T16:21:41.546Z,43.12
2019-04-19T16:23:26.480Z,43.10
2019-04-19T16:24:27.242Z,42.90
2019-04-19T16:26:19.285Z,42.80
2019-04-19T16:27:19.221Z,43.10
2019-04-19T16:29:24.654Z,43.19
2019-04-19T16:30:12.290Z,43.00
2019-04-19T16:32:04.970Z,43.00
2019-04-19T16:33:04.809Z,42.42
2019-04-19T16:34:57.693Z,43.00
2019-04-19T16:35:58.614Z,42.90
2019-04-19T16:37:51.273Z,42.52
2019-04-19T16:38:50.999Z,42.61
2019-04-19T16:40:43.234Z,43.00
2019-04-19T16:41:43.049Z,42.61
2019-04-19T16:43:35.841Z,42.61
2019-04-19T16:44:36.305Z,43.29
2019-04-19T16:46:30.591Z,43.58
2019-04-19T16:47:29.238Z,43.10
2019-04-19T16:49:22.576Z,42.80
2019-04-19T16:50:21.224Z,42.69
2019-04-19T16:52:15.080Z,42.97
2019-04-19T16:53:13.979Z,44.04
2019-04-19T16:55:07.302Z,43.75
2019-04-19T16:56:07.794Z,43.17
2019-04-19T16:58:00.808Z,43.17
2019-04-19T16:59:01.404Z,43.17
2019-04-19T17:00:52.559Z,42.88
2019-04-19T17:01:52.629Z,42.69
2019-04-19T17:03:45.778Z,43.55
2019-04-19T17:04:45.005Z,43.46
2019-04-19T17:06:38.389Z,43.54
2019-04-19T17:07:37.733Z,43.82
2019-04-19T17:09:31.040Z,44.40
2019-04-19T17:10:30.910Z,44.11
2019-04-19T17:12:24.247Z,43.54
2019-04-19T17:13:24.551Z,43.05
2019-04-19T17:15:16.934Z,43.15
2019-04-19T17:16:16.004Z,43.54
2019-04-19T17:18:09.013Z,43.63
2019-04-19T17:19:08.857Z,43.90
2019-04-19T17:21:01.751Z,43.71
2019-04-19T17:22:08.997Z,43.54
2019-04-19T17:23:55.274Z,44.38
2019-04-19T17:24:54.757Z,44.21
2019-04-19T17:26:46.988Z,43.51
2019-04-19T17:27:47.240Z,42.84
2019-04-19T17:29:40.897Z,43.90
2019-04-19T17:30:40.161Z,43.90
2019-04-19T17:32:32.564Z,43.99
2019-04-19T17:33:32.568Z,43.97
2019-04-19T17:35:25.947Z,43.88
2019-04-19T17:36:26.057Z,43.97
2019-04-19T17:38:31.219Z,44.45
2019-04-19T17:39:17.956Z,43.97
2019-04-19T17:41:10.941Z,44.74
2019-04-19T17:42:10.771Z,44.35
2019-04-19T17:44:03.717Z,44.91
2019-04-19T17:45:03.549Z,44.24
2019-04-19T17:46:56.553Z,44.53
2019-04-19T17:47:56.618Z,44.43
2019-04-19T17:49:50.148Z,44.89
2019-04-19T17:50:49.171Z,44.60
2019-04-19T17:52:42.320Z,44.22
2019-04-19T17:53:46.838Z,45.18
2019-04-19T17:55:41.145Z,44.70
2019-04-19T17:56:35.377Z,44.70
2019-04-19T17:58:27.574Z,44.96
2019-04-19T17:59:27.978Z,44.79
2019-04-19T18:01:20.321Z,45.25
2019-04-19T18:02:21.264Z,44.96
2019-04-19T18:04:13.328Z,45.45
2019-04-19T18:05:13.942Z,44.58
2019-04-19T18:07:06.754Z,45.06
2019-04-19T18:08:06.426Z,44.87
2019-04-19T18:10:03.940Z,45.06
2019-04-19T18:10:59.536Z,44.58
2019-04-19T18:12:51.385Z,45.04
2019-04-19T18:13:51.167Z,45.61
2019-04-19T18:15:44.716Z,45.42
2019-04-19T18:16:44.895Z,46.19
2019-04-19T18:18:44.210Z,45.52
2019-04-19T18:19:39.891Z,46.28
2019-04-19T18:21:33.354Z,46.17
2019-04-19T18:22:42.483Z,46.36
2019-04-19T18:24:27.225Z,46.74
2019-04-19T18:25:22.218Z,46.94
2019-04-19T18:27:19.931Z,47.30
2019-04-19T18:28:16.668Z,47.20
2019-04-19T18:30:10.113Z,47.87
2019-04-19T18:31:09.464Z,48.07
2019-04-19T18:33:02.017Z,48.07
2019-04-19T18:34:06.753Z,48.64
2019-04-19T18:36:01.989Z,48.74
2019-04-19T18:36:55.980Z,48.44
2019-04-19T18:38:46.283Z,47.87
2019-04-19T18:39:45.961Z,48.64
2019-04-19T18:41:39.103Z,47.37
2019-04-19T18:42:50.109Z,49.48
2019-04-19T18:44:39.002Z,57.34
2019-04-19T18:45:36.865Z,54.72
2019-04-19T18:47:25.017Z,52.62
2019-04-19T18:48:24.294Z,57.98
2019-04-19T18:50:18.172Z,54.53
2019-04-19T18:51:20.735Z,55.21
2019-04-19T18:53:18.988Z,58.84
2019-04-19T18:54:18.923Z,66.99
2019-04-19T18:56:10.508Z,57.41
2019-04-19T18:57:04.869Z,55.21
2019-04-19T18:59:01.674Z,57.60
2019-04-19T18:59:58.766Z,53.26
2019-04-19T19:01:49.521Z,55.36
2019-04-19T19:02:53.001Z,57.95
2019-04-19T19:04:41.167Z,59.48
2019-04-19T19:05:45.607Z,58.81
2019-04-19T19:07:34.707Z,57.38
2019-04-19T19:08:43.371Z,56.71
2019-04-19T19:10:36.590Z,54.03
2019-04-19T19:11:27.925Z,57.48
2019-04-19T19:13:25.628Z,60.64
2019-04-19T19:14:21.516Z,55.56
2019-04-19T19:16:18.644Z,55.24
2019-04-19T19:17:16.560Z,55.53
2019-04-19T19:19:08.741Z,58.98
2019-04-19T19:20:11.485Z,56.68
2019-04-19T19:21:58.107Z,61.08
2019-04-19T19:23:09.357Z,59.08
2019-04-19T19:25:11.244Z,56.39
2019-04-19T19:26:07.248Z,56.10
2019-04-19T19:27:44.050Z,57.54
2019-04-19T19:28:44.247Z,54.48
2019-04-19T19:30:35.860Z,57.83
2019-04-19T19:31:36.720Z,56.77
2019-04-19T19:33:35.392Z,57.45
2019-04-19T19:34:30.235Z,58.98
2019-04-19T19:36:23.338Z,57.26
2019-04-19T19:37:26.732Z,56.27
2019-04-19T19:40:25.550Z,58.37
2019-04-19T19:42:05.557Z,58.37
2019-04-19T19:43:27.315Z,57.80
2019-04-19T19:45:17.914Z,57.61
2019-04-19T19:46:23.092Z,57.42
2019-04-19T19:48:12.726Z,57.51
2019-04-19T19:49:37.295Z,58.47
2019-04-19T19:51:05.041Z,57.42
2019-04-19T19:51:53.806Z,57.80
2019-04-19T19:54:13.161Z,57.61
2019-04-19T19:54:57.495Z,58.76
2019-04-19T19:56:48.838Z,57.99
2019-04-19T19:57:42.975Z,57.01
2019-04-19T19:59:29.105Z,58.92
2019-04-19T20:00:35.813Z,60.45
2019-04-19T20:02:28.024Z,57.48
2019-04-19T20:03:22.398Z,58.34
2019-04-19T20:05:12.172Z,60.06
2019-04-19T20:06:15.795Z,60.16
2019-04-19T20:08:01.601Z,57.58
2019-04-19T20:09:08.947Z,57.68
2019-04-19T20:10:54.854Z,57.26
2019-04-19T20:11:56.239Z,58.22
2019-04-19T20:13:49.992Z,58.89
2019-04-19T20:14:47.241Z,60.04
2019-04-19T20:16:39.947Z,57.36
2019-04-19T20:17:45.503Z,58.80
2019-04-19T20:19:33.081Z,59.84
2019-04-19T20:20:36.173Z,60.42
2019-04-19T20:22:27.889Z,59.84
2019-04-19T20:23:31.828Z,62.24
2019-04-19T20:25:28.832Z,60.42
2019-04-19T20:26:26.342Z,60.04
2019-04-19T20:28:14.165Z,62.14
2019-04-19T20:29:20.113Z,61.85
2019-04-19T20:31:05.371Z,59.66
2019-04-19T20:32:11.149Z,60.13
2019-04-19T20:34:00.133Z,60.42
2019-04-19T20:34:59.392Z,61.47
2019-04-19T20:36:49.344Z,62.90
2019-04-19T20:37:53.382Z,61.47
2019-04-19T20:39:44.759Z,58.00
2019-04-19T20:40:49.308Z,59.91
2019-04-19T20:43:01.403Z,61.63
2019-04-19T20:43:47.286Z,61.06
2019-04-19T20:45:36.887Z,60.01
2019-04-19T20:46:28.640Z,62.59
2019-04-19T20:48:23.234Z,63.16
2019-04-19T20:49:19.376Z,62.78
2019-04-19T20:51:23.181Z,61.82
2019-04-19T20:52:25.264Z,62.21
2019-04-19T20:54:24.223Z,64.09
2019-04-19T20:55:25.030Z,61.41
2019-04-19T20:58:09.668Z,63.03